Time;durP1;ratioP1;P1;durP2;ratioP2;P2;SDS_P1;SDS_P2;PMS_P1;PMS_P2;Temp;Humidity;BMP_temperature;BMP_pressure;BME280_temperature;BME280_humidity;BME280_pressure;Samples;Min_cycle;Max_cycle;Signal;HPM_P1;HPM_P2
2021/05/16 00:00:50;;;;;;;6.03;4.03;;;;;;;9.31;82.24;98990.31;8732695;32;20415;-73
2021/05/16 00:05:52;;;;;;;8.77;4.93;;;;;;;9.45;82.63;98995.16;8734643;32;20234;-73
2021/05/16 00:10:56;;;;;;;5.55;4.38;;;;;;;9.47;82.16;98993.19;8734808;32;20415;-73
2021/05/16 00:15:59;;;;;;;6.25;4.45;;;;;;;9.35;82.33;98993.53;8705303;32;20443;-73
2021/05/16 00:21:02;;;;;;;8.00;4.70;;;;;;;9.26;82.21;98990.75;8727141;32;20454;-73
2021/05/16 00:26:07;;;;;;;6.25;4.78;;;;;;;9.15;81.69;98990.13;8736121;32;20447;-73
2021/05/16 00:31:10;;;;;;;7.45;4.88;;;;;;;9.11;81.72;98981.53;8735392;32;21124;-73
2021/05/16 00:36:13;;;;;;;6.13;5.07;;;;;;;9.09;81.72;98991.56;8735077;32;20563;-73
2021/05/16 00:41:16;;;;;;;7.68;5.47;;;;;;;9.05;80.89;98987.47;8722704;32;20144;-73
2021/05/16 00:46:19;;;;;;;7.85;5.00;;;;;;;8.99;81.36;98986.22;8721295;32;20556;-73
2021/05/16 00:51:22;;;;;;;8.73;4.75;;;;;;;8.92;81.18;98985.16;8701780;32;20209;-73
2021/05/16 00:56:27;;;;;;;8.38;5.07;;;;;;;8.82;80.65;98982.50;8713493;32;20410;-73
2021/05/16 01:01:31;;;;;;;7.40;4.93;;;;;;;8.78;80.75;98973.09;8698162;32;20832;-73
2021/05/16 01:06:35;;;;;;;7.88;4.80;;;;;;;8.66;80.41;98987.66;8720826;32;20451;-73
2021/05/16 01:11:43;;;;;;;9.10;4.05;;;;;;;8.54;79.99;98997.69;8694622;32;20405;-73
2021/05/16 01:16:46;;;;;;;6.55;4.82;;;;;;;8.60;80.09;98991.75;8691660;32;20505;-73
2021/05/16 01:21:52;;;;;;;10.90;5.10;;;;;;;8.40;80.11;98993.59;8689966;32;20521;-73
2021/05/16 01:26:55;;;;;;;8.32;5.40;;;;;;;8.45;80.01;98985.16;8710935;32;20151;-73
2021/05/16 01:31:58;;;;;;;10.07;5.20;;;;;;;8.56;79.61;98986.84;8709642;32;20453;-73
2021/05/16 01:37:02;;;;;;;9.25;5.65;;;;;;;8.59;79.98;98979.38;8709303;32;20130;-73
2021/05/16 01:42:07;;;;;;;11.48;6.10;;;;;;;8.35;79.66;98989.69;8684188;32;20231;-73
2021/05/16 01:47:10;;;;;;;11.05;6.28;;;;;;;8.44;79.57;98988.81;8711122;32;20169;-73
2021/05/16 01:52:14;;;;;;;10.60;6.85;;;;;;;8.42;79.50;98985.44;8712929;32;20188;-72
2021/05/16 01:57:17;;;;;;;13.80;6.35;;;;;;;8.37;79.69;98985.88;8713758;32;21422;-73
2021/05/16 02:02:20;;;;;;;13.70;6.93;;;;;;;8.52;79.34;98993.47;8715267;32;20597;-73
2021/05/16 02:07:24;;;;;;;11.95;6.70;;;;;;;8.75;79.20;98994.81;8721267;32;21145;-73
2021/05/16 02:12:28;;;;;;;14.38;7.43;;;;;;;8.57;79.10;98991.19;8694425;32;20437;-73
2021/05/16 02:17:33;;;;;;;12.38;6.50;;;;;;;8.68;78.87;98991.03;8702118;32;20223;-73
2021/05/16 02:22:37;;;;;;;11.07;6.10;;;;;;;8.74;78.71;98985.06;8734184;32;20493;-73
2021/05/16 02:27:40;;;;;;;9.73;5.40;;;;;;;8.64;78.95;98996.81;8708280;32;20413;-73
2021/05/16 02:32:45;;;;;;;13.23;5.55;;;;;;;8.75;78.68;98988.59;8709538;32;20907;-73
2021/05/16 02:37:49;;;;;;;10.50;5.68;;;;;;;8.66;79.19;98987.66;8721895;32;22484;-72
2021/05/16 02:42:52;;;;;;;8.83;5.00;;;;;;;8.79;79.33;98988.16;8691955;32;20565;-73
2021/05/16 02:47:56;;;;;;;10.98;5.53;;;;;;;8.78;78.28;98999.88;8716040;32;20623;-73
2021/05/16 02:53:03;;;;;;;12.85;6.05;;;;;;;8.64;78.56;99000.34;8689988;32;20457;-73
2021/05/16 02:58:10;;;;;;;13.23;5.13;;;;;;;8.84;77.97;99001.13;8713198;32;20407;-73
2021/05/16 03:03:21;;;;;;;11.30;5.57;;;;;;;8.78;77.84;99005.22;8689587;32;20452;-72
2021/05/16 03:08:28;;;;;;;11.85;5.32;;;;;;;8.82;77.72;99003.09;8692761;32;20623;-72
2021/05/16 03:13:31;;;;;;;9.38;4.97;;;;;;;8.86;78.43;99015.22;8715457;32;20407;-73
2021/05/16 03:18:40;;;;;;;12.45;5.88;;;;;;;8.70;79.52;99010.47;8686313;32;20293;-73
2021/05/16 03:23:44;;;;;;;11.02;5.15;;;;;;;8.44;80.14;99007.53;8712807;32;20428;-73
2021/05/16 03:28:48;;;;;;;10.95;5.72;;;;;;;8.36;80.41;99002.94;8688040;32;20479;-72
2021/05/16 03:33:50;;;;;;;15.30;6.28;;;;;;;8.30;80.63;98999.97;8715271;32;20170;-73
2021/05/16 03:38:55;;;;;;;12.90;5.65;;;;;;;8.28;80.41;99001.94;8714366;32;20818;-72
2021/05/16 03:43:57;;;;;;;16.13;6.05;;;;;;;8.24;80.53;99001.38;8716018;32;20197;-72
2021/05/16 03:49:01;;;;;;;12.13;6.55;;;;;;;8.39;80.45;98986.56;8683866;32;20408;-72
2021/05/16 03:54:06;;;;;;;10.88;7.00;;;;;;;8.29;80.83;98996.44;8708797;32;20141;-72
2021/05/16 03:59:09;;;;;;;14.63;7.93;;;;;;;8.44;80.06;99009.38;8708565;32;21827;-73
2021/05/16 04:04:12;;;;;;;10.38;5.93;;;;;;;8.37;79.76;99007.28;8712511;32;20185;-72
2021/05/16 04:09:15;;;;;;;19.08;9.65;;;;;;;8.43;80.27;99002.34;8715596;32;20141;-72
2021/05/16 04:14:18;;;;;;;15.68;7.25;;;;;;;8.44;80.45;99015.56;8692042;32;20403;-72
2021/05/16 04:19:21;;;;;;;22.10;8.75;;;;;;;8.30;81.18;99014.19;8713532;32;20177;-72
2021/05/16 04:24:24;;;;;;;18.63;8.68;;;;;;;8.20;81.31;99009.81;8708776;32;20221;-72
2021/05/16 04:29:27;;;;;;;15.63;7.10;;;;;;;8.21;81.40;99020.41;8705540;32;20450;-72
2021/05/16 04:34:29;;;;;;;18.00;7.93;;;;;;;8.13;80.99;99020.25;8704664;32;20177;-72
2021/05/16 04:39:33;;;;;;;11.45;4.88;;;;;;;8.13;81.19;99034.47;8705025;32;20444;-72
2021/05/16 04:44:36;;;;;;;24.20;8.25;;;;;;;8.42;80.82;99024.72;8680456;32;20458;-72
2021/05/16 04:49:38;;;;;;;19.75;7.35;;;;;;;8.43;79.80;99019.22;8703063;32;20168;-72
2021/05/16 04:54:42;;;;;;;15.93;6.00;;;;;;;8.38;79.77;99026.84;8679313;32;20413;-72
2021/05/16 04:59:46;;;;;;;16.38;7.65;;;;;;;8.66;80.26;99035.81;8705269;32;20426;-72
2021/05/16 05:04:49;;;;;;;16.27;6.35;;;;;;;8.55;79.05;99028.81;8705588;32;20664;-72
2021/05/16 05:09:52;;;;;;;16.50;6.38;;;;;;;8.74;79.08;99027.06;8707762;32;20173;-72
2021/05/16 05:14:55;;;;;;;13.75;6.55;;;;;;;8.95;78.55;99037.59;8710592;32;20437;-72
2021/05/16 05:19:57;;;;;;;17.85;5.80;;;;;;;9.00;78.15;99038.84;8712727;32;20173;-72
2021/05/16 05:25:01;;;;;;;13.05;5.65;;;;;;;9.03;77.24;99037.69;8715310;32;20512;-72
2021/05/16 05:30:05;;;;;;;12.30;4.97;;;;;;;8.80;77.53;99032.72;8713838;32;20189;-72
2021/05/16 05:35:08;;;;;;;11.55;4.93;;;;;;;8.94;77.09;99030.53;8713492;32;20427;-72
2021/05/16 05:40:13;;;;;;;9.82;5.18;;;;;;;9.08;77.32;99045.25;8713720;32;20912;-71
2021/05/16 05:45:16;;;;;;;10.32;4.65;;;;;;;8.91;76.64;99046.88;8713197;32;20470;-71
2021/05/16 05:50:18;;;;;;;15.73;5.70;;;;;;;9.06;77.09;99043.59;8711663;32;20189;-71
2021/05/16 05:55:22;;;;;;;16.48;4.88;;;;;;;8.88;76.19;99055.22;8708527;32;20439;-71
2021/05/16 06:00:28;;;;;;;15.10;5.55;;;;;;;9.05;75.64;99049.94;8707928;32;20444;-71
2021/05/16 06:05:31;;;;;;;16.85;4.60;;;;;;;9.15;76.41;99060.59;8711620;32;21899;-71
2021/05/16 06:10:35;;;;;;;14.20;4.30;;;;;;;9.05;75.30;99057.13;8714502;32;21230;-71
2021/05/16 06:15:37;;;;;;;10.80;4.03;;;;;;;9.44;75.58;99065.84;8713067;32;20725;-71
2021/05/16 06:20:40;;;;;;;13.98;3.40;;;;;;;9.11;74.41;99069.94;8712579;32;20838;-71
2021/05/16 06:25:44;;;;;;;9.43;3.47;;;;;;;9.47;74.76;99062.03;8716116;32;20522;-71
2021/05/16 06:30:46;;;;;;;6.38;3.28;;;;;;;9.50;74.76;99064.41;8716643;32;20205;-71
2021/05/16 06:35:49;;;;;;;12.15;3.53;;;;;;;9.47;74.62;99057.50;8717322;32;20406;-71
2021/05/16 06:40:53;;;;;;;13.95;3.80;;;;;;;9.71;75.07;99069.50;8715604;32;20534;-71
2021/05/16 06:45:55;;;;;;;10.57;3.72;;;;;;;9.87;74.14;99067.03;8718084;32;21854;-71
2021/05/16 06:50:58;;;;;;;9.18;3.30;;;;;;;9.99;72.86;99066.81;8715354;32;20541;-71
2021/05/16 06:56:02;;;;;;;19.10;3.83;;;;;;;10.03;73.55;99081.59;8723216;32;20918;-71
2021/05/16 07:01:05;;;;;;;10.68;3.85;;;;;;;9.93;71.70;99068.25;8723059;32;20922;-71
2021/05/16 07:06:08;;;;;;;10.52;3.28;;;;;;;9.85;71.23;99073.50;8703801;32;20134;-71
2021/05/16 07:11:12;;;;;;;12.50;4.57;;;;;;;10.17;72.64;99078.38;8737177;32;20440;-72
2021/05/16 07:16:14;;;;;;;10.57;4.40;;;;;;;10.29;71.89;99082.53;8736951;32;20181;-72
2021/05/16 07:21:17;;;;;;;11.13;4.60;;;;;;;9.92;70.57;99082.66;8729428;32;20495;-72
2021/05/16 07:26:21;;;;;;;12.00;4.82;;;;;;;10.09;71.01;99086.34;8729688;32;20415;-72
2021/05/16 07:31:23;;;;;;;16.70;5.50;;;;;;;9.83;70.70;99084.38;8739290;32;20149;-72
2021/05/16 07:36:26;;;;;;;14.68;5.85;;;;;;;10.07;69.12;99088.34;8737331;32;20412;-72
2021/05/16 07:41:29;;;;;;;14.20;6.20;;;;;;;10.86;70.53;99076.75;8736223;32;20185;-72
2021/05/16 07:46:32;;;;;;;9.68;5.30;;;;;;;11.43;66.31;99073.53;8734854;32;20413;-72
2021/05/16 07:51:35;;;;;;;16.00;6.18;;;;;;;11.22;66.78;99071.28;8729432;32;20872;-72
2021/05/16 07:56:38;;;;;;;11.30;6.30;;;;;;;11.48;66.18;99073.91;8738785;32;20655;-73
2021/05/16 08:01:41;;;;;;;10.25;5.65;;;;;;;11.58;64.00;99074.63;8736771;32;20596;-71
2021/05/16 08:06:43;;;;;;;14.48;6.68;;;;;;;11.40;62.80;99066.63;8736111;32;20224;-71
2021/05/16 08:11:47;;;;;;;16.63;5.35;;;;;;;11.32;63.38;99071.97;8697928;32;20421;-71
2021/05/16 08:16:49;;;;;;;17.27;5.82;;;;;;;11.59;60.99;99062.84;8736292;32;20138;-71
2021/05/16 08:21:52;;;;;;;15.10;6.03;;;;;;;12.00;61.04;99078.25;8736223;32;20161;-72
2021/05/16 08:26:55;;;;;;;11.70;5.72;;;;;;;11.98;62.05;99064.13;8740442;32;20418;-72
2021/05/16 08:31:58;;;;;;;11.68;5.80;;;;;;;13.05;62.04;99057.72;8741255;32;20623;-71
2021/05/16 08:37:04;;;;;;;9.32;5.63;;;;;;;13.80;57.25;99051.03;8741057;32;20181;-70
2021/05/16 08:42:08;;;;;;;12.75;6.57;;;;;;;14.01;54.78;99061.19;8682963;33;20767;-71
2021/05/16 08:47:11;;;;;;;9.93;5.60;;;;;;;13.75;57.44;99066.91;8686613;33;20138;-71
2021/05/16 08:52:14;;;;;;;15.38;5.80;;;;;;;13.30;57.11;99066.56;8686680;33;20964;-71
2021/05/16 08:57:19;;;;;;;7.18;4.88;;;;;;;13.67;56.73;99065.09;8686447;33;20174;-70
2021/05/16 09:02:22;;;;;;;13.75;4.53;;;;;;;13.40;57.06;99075.31;8686882;33;20410;-71
2021/05/16 09:07:29;;;;;;;13.02;5.78;;;;;;;12.52;57.87;99086.09;8686523;33;20189;-71
2021/05/16 09:12:39;;;;;;;6.00;3.78;;;;;;;12.31;58.77;99071.28;8688715;33;20275;-71
2021/05/16 09:17:41;;;;;;;7.68;4.70;;;;;;;12.95;59.09;99074.09;8690939;33;20198;-71
2021/05/16 09:22:46;;;;;;;10.68;4.88;;;;;;;13.46;56.86;99058.44;8688750;33;20561;-71
2021/05/16 09:27:53;;;;;;;9.65;4.18;;;;;;;13.54;54.79;99073.75;8686494;33;20458;-71
2021/05/16 09:32:59;;;;;;;9.73;4.50;;;;;;;13.48;56.19;99071.75;8689269;33;20871;-71
2021/05/16 09:38:07;;;;;;;8.60;4.65;;;;;;;14.02;54.98;99090.72;8688279;33;20326;-71
2021/05/16 09:43:17;;;;;;;11.98;4.03;;;;;;;13.93;53.59;99073.72;8682135;33;20246;-71
2021/05/16 09:48:39;;;;;;;10.18;3.92;;;;;;;13.30;53.14;99061.16;8680648;33;21869;-70
2021/05/16 09:53:57;;;;;;;7.60;4.47;;;;;;;13.67;54.43;99079.44;8680029;33;20303;-71
2021/05/16 09:59:03;;;;;;;6.88;4.18;;;;;;;13.91;53.50;99064.13;8677638;33;20420;-71
2021/05/16 10:04:08;;;;;;;10.38;4.47;;;;;;;13.56;53.83;99074.44;8674698;33;20203;-71
2021/05/16 10:09:10;;;;;;;10.52;4.90;;;;;;;14.13;53.77;99068.69;8673820;33;20197;-71
2021/05/16 10:14:17;;;;;;;9.45;3.85;;;;;;;14.79;52.31;99077.16;8645698;33;20932;-71
2021/05/16 10:19:24;;;;;;;9.50;4.28;;;;;;;15.83;51.10;99054.69;8673378;33;20456;-71
2021/05/16 10:24:37;;;;;;;11.13;2.38;;;;;;;14.49;50.75;99061.88;8677673;33;20277;-71
2021/05/16 10:29:48;;;;;;;9.68;3.63;;;;;;;14.26;53.61;99068.13;8650027;33;20205;-71
2021/05/16 10:35:00;;;;;;;10.43;3.70;;;;;;;13.08;54.10;99064.59;8677120;33;21932;-71
2021/05/16 10:40:05;;;;;;;9.63;4.40;;;;;;;13.26;55.01;99051.75;8673963;33;21604;-71
2021/05/16 10:45:13;;;;;;;6.28;3.38;;;;;;;12.17;57.67;99082.66;8661641;33;20408;-71
2021/05/16 10:50:51;;;;;;;6.47;2.88;;;;;;;12.35;59.57;99066.41;8660410;33;20483;-71
2021/05/16 10:56:10;;;;;;;7.10;2.72;;;;;;;14.23;54.62;99051.41;8523092;33;20412;-71
2021/05/16 11:01:16;;;;;;;6.10;2.75;;;;;;;15.24;50.29;99052.84;8637281;33;20212;-71
2021/05/16 11:06:22;;;;;;;5.68;2.65;;;;;;;16.46;47.67;99044.94;8662503;33;21006;-71
2021/05/16 11:11:31;;;;;;;8.18;2.65;;;;;;;16.14;47.59;99036.25;8662656;33;20192;-71
2021/05/16 11:16:34;;;;;;;6.80;3.42;;;;;;;17.53;44.34;99027.50;8675124;33;20420;-72
2021/05/16 11:21:37;;;;;;;3.85;2.70;;;;;;;17.24;44.55;99029.44;8676519;33;20339;-72
2021/05/16 11:26:40;;;;;;;8.75;2.80;;;;;;;17.62;43.98;99020.00;8677107;33;20240;-74
2021/05/16 11:31:44;;;;;;;8.93;3.38;;;;;;;15.39;46.26;99032.06;8679224;33;20419;-73
2021/05/16 11:36:47;;;;;;;9.73;3.67;;;;;;;15.98;45.80;99017.53;8676181;33;20645;-73
2021/05/16 11:41:50;;;;;;;7.32;3.33;;;;;;;16.62;45.50;99015.84;8672386;33;20806;-73
2021/05/16 11:46:53;;;;;;;6.07;3.25;;;;;;;17.03;42.43;99019.50;8659959;33;20676;-73
2021/05/16 11:51:58;;;;;;;8.82;3.25;;;;;;;15.66;45.66;99027.84;8660288;33;20476;-73
2021/05/16 11:57:01;;;;;;;10.07;3.70;;;;;;;15.76;47.42;99007.72;8659404;33;21401;-72
2021/05/16 12:02:05;;;;;;;10.07;3.72;;;;;;;17.11;44.24;98993.22;8658421;33;20746;-73
2021/05/16 12:07:08;;;;;;;6.75;3.47;;;;;;;15.92;45.03;99008.31;8658935;33;20413;-73
2021/05/16 12:12:17;;;;;;;8.25;3.42;;;;;;;15.36;46.44;99001.84;8658568;33;20174;-71
2021/05/16 12:17:29;;;;;;;5.90;2.92;;;;;;;14.62;48.81;99009.91;8661084;33;20216;-71
2021/05/16 12:22:36;;;;;;;5.93;2.30;;;;;;;13.42;51.68;99027.44;8643389;33;21108;-70
2021/05/16 12:27:39;;;;;;;3.20;1.85;;;;;;;14.27;51.13;99036.53;8670601;33;20536;-70
2021/05/16 12:32:42;;;;;;;2.45;1.60;;;;;;;14.33;49.99;99036.66;8673568;33;20157;-71
2021/05/16 12:37:46;;;;;;;3.38;1.70;;;;;;;13.94;51.18;99026.81;8670124;33;21024;-71
2021/05/16 12:43:02;;;;;;;4.00;1.70;;;;;;;13.99;52.06;99020.03;8673560;33;20194;-71
2021/05/16 12:48:09;;;;;;;3.53;2.30;;;;;;;14.98;49.38;99018.16;8675041;33;20411;-71
2021/05/16 12:53:29;;;;;;;4.25;1.48;;;;;;;16.35;43.52;99013.78;8672851;33;20658;-71
2021/05/16 12:58:34;;;;;;;1.73;1.40;;;;;;;17.98;40.88;99003.44;8667047;33;20185;-71
2021/05/16 13:03:37;;;;;;;2.35;1.20;;;;;;;17.76;40.36;99002.72;8659799;33;20147;-71
2021/05/16 13:08:41;;;;;;;4.85;1.83;;;;;;;17.68;39.27;99000.19;8658604;33;20592;-71
2021/05/16 13:13:46;;;;;;;5.10;2.28;;;;;;;16.83;40.10;99010.38;8655473;33;20458;-71
2021/05/16 13:18:52;;;;;;;4.57;1.50;;;;;;;18.64;38.06;98999.06;8653618;32;21070;-71
2021/05/16 13:24:01;;;;;;;2.90;1.83;;;;;;;15.84;44.47;99004.91;8651904;32;20427;-71
2021/05/16 13:29:05;;;;;;;3.28;2.40;;;;;;;14.87;47.14;98999.72;8653576;32;20418;-72
2021/05/16 13:34:22;;;;;;;4.15;2.90;;;;;;;14.48;48.86;98998.91;8653298;32;20149;-71
2021/05/16 13:39:27;;;;;;;6.45;2.35;;;;;;;15.92;45.19;99000.19;8651029;33;20185;-71
2021/05/16 13:44:31;;;;;;;2.80;2.05;;;;;;;17.22;42.60;99001.69;8653465;33;20178;-71
2021/05/16 13:49:34;;;;;;;2.83;2.40;;;;;;;15.12;48.28;98995.69;8717268;32;20168;-71
2021/05/16 13:54:37;;;;;;;5.25;2.90;;;;;;;15.34;48.05;98984.94;8716790;32;21586;-71
2021/05/16 13:59:40;;;;;;;5.35;2.40;;;;;;;15.39;49.15;98983.38;8713358;32;20439;-72
2021/05/16 14:04:43;;;;;;;6.25;3.08;;;;;;;15.82;46.85;98978.00;8718710;32;21122;-72
2021/05/16 14:09:46;;;;;;;5.22;2.42;;;;;;;15.50;47.14;98976.63;8720040;32;20497;-72
2021/05/16 14:14:49;;;;;;;4.43;2.30;;;;;;;15.68;48.16;98977.03;8717652;32;20504;-72
2021/05/16 14:19:52;;;;;;;3.83;2.08;;;;;;;17.12;43.75;98963.19;8717207;32;20185;-71
2021/05/16 14:24:55;;;;;;;7.35;2.33;;;;;;;17.62;41.64;98944.81;8719380;32;20520;-72
2021/05/16 14:29:58;;;;;;;2.95;1.08;;;;;;;17.40;38.17;98946.84;8712963;32;20978;-72
2021/05/16 14:35:02;;;;;;;3.38;1.35;;;;;;;17.44;38.79;98947.25;8717885;32;20439;-71
2021/05/16 14:40:07;;;;;;;5.97;1.83;;;;;;;17.44;38.73;98923.69;8716097;32;20414;-71
2021/05/16 14:45:10;;;;;;;3.80;1.48;;;;;;;18.63;36.85;98924.00;8689985;32;20202;-71
2021/05/16 14:50:14;;;;;;;3.75;1.83;;;;;;;18.57;36.31;98925.69;8720576;32;22594;-71
2021/05/16 14:55:16;;;;;;;4.72;1.48;;;;;;;19.23;35.27;98914.63;8719613;32;20160;-71
2021/05/16 15:00:20;;;;;;;3.13;1.40;;;;;;;19.08;35.43;98916.75;8719598;32;20412;-71
2021/05/16 15:05:24;;;;;;;5.15;1.70;;;;;;;18.99;36.92;98904.47;8720666;32;20858;-71
2021/05/16 15:10:26;;;;;;;2.30;1.90;;;;;;;18.35;36.65;98898.72;8713261;32;20153;-72
2021/05/16 15:15:29;;;;;;;5.55;1.50;;;;;;;19.15;34.10;98895.81;8709930;32;20407;-72
2021/05/16 15:20:32;;;;;;;3.25;1.60;;;;;;;18.23;35.74;98896.84;8709817;32;20224;-75
2021/05/16 15:25:35;;;;;;;3.00;1.30;;;;;;;18.66;34.62;98890.94;8711596;32;20653;-72
2021/05/16 15:30:38;;;;;;;4.95;1.05;;;;;;;19.02;34.60;98891.25;8712778;32;20395;-72
2021/05/16 15:35:43;;;;;;;1.20;1.10;;;;;;;18.56;34.82;98885.94;8710186;32;20425;-72
2021/05/16 15:40:46;;;;;;;2.38;1.30;;;;;;;19.76;35.74;98877.25;8705750;32;20420;-72
2021/05/16 15:45:49;;;;;;;2.65;1.30;;;;;;;19.19;34.28;98879.88;8717312;32;20196;-71
2021/05/16 15:50:52;;;;;;;2.05;1.33;;;;;;;18.89;33.75;98874.16;8718623;32;20142;-72
2021/05/16 15:55:56;;;;;;;3.70;1.13;;;;;;;17.87;36.58;98874.47;8721198;32;20232;-71
2021/05/16 16:01:00;;;;;;;1.20;1.10;;;;;;;17.90;37.97;98870.50;8721112;32;20225;-73
2021/05/16 16:06:04;;;;;;;1.88;1.30;;;;;;;16.81;39.23;98869.59;8732845;32;20407;-71
2021/05/16 16:11:07;;;;;;;3.08;1.40;;;;;;;16.56;40.37;98873.81;8722881;32;20417;-71
2021/05/16 16:16:09;;;;;;;2.90;1.55;;;;;;;16.58;40.68;98869.03;8723434;32;20188;-70
2021/05/16 16:21:13;;;;;;;2.78;1.48;;;;;;;16.48;40.86;98865.84;8735241;32;20445;-70
2021/05/16 16:26:16;;;;;;;3.58;1.63;;;;;;;16.32;40.27;98859.72;8735220;32;20310;-71
2021/05/16 16:31:19;;;;;;;4.75;1.52;;;;;;;15.96;41.60;98870.66;8733474;32;21416;-71
2021/05/16 16:36:22;;;;;;;1.92;1.70;;;;;;;15.77;42.60;98858.66;8719677;32;20142;-70
2021/05/16 16:41:25;;;;;;;4.18;1.75;;;;;;;15.87;42.09;98851.03;8686035;32;20437;-71
2021/05/16 16:46:27;;;;;;;2.97;1.70;;;;;;;15.56;44.26;98847.84;8719538;32;20176;-72
2021/05/16 16:51:31;;;;;;;3.22;1.70;;;;;;;15.52;44.51;98851.97;8732094;32;20437;-71
2021/05/16 16:56:34;;;;;;;3.20;1.63;;;;;;;15.19;45.55;98847.88;8731716;32;20458;-71
2021/05/16 17:01:36;;;;;;;6.07;2.67;;;;;;;14.08;57.61;98856.97;8676657;32;20260;-72
2021/05/16 17:06:40;;;;;;;6.50;2.53;;;;;;;12.40;63.42;98862.09;8733107;32;20405;-72
2021/05/16 17:11:42;;;;;;;3.90;2.08;;;;;;;11.92;70.23;98858.44;8725387;32;20169;-71
2021/05/16 17:16:45;;;;;;;3.28;2.30;;;;;;;11.68;74.98;98856.59;8720814;32;20421;-71
2021/05/16 17:21:49;;;;;;;5.97;3.22;;;;;;;11.11;75.11;98859.22;8723740;32;20452;-71
2021/05/16 17:26:52;;;;;;;3.63;3.00;;;;;;;10.00;77.05;98869.97;8717294;32;20560;-71
2021/05/16 17:31:55;;;;;;;4.60;3.13;;;;;;;9.67;78.79;98891.16;8718936;32;20398;-72
2021/05/16 17:37:01;;;;;;;3.67;2.60;;;;;;;9.31;77.66;98906.41;8676455;32;20506;-72
2021/05/16 17:42:05;;;;;;;3.63;1.98;;;;;;;8.67;79.34;98934.97;8711916;32;20159;-71
2021/05/16 17:47:09;;;;;;;6.60;2.28;;;;;;;8.97;81.66;98928.50;8715266;32;20405;-72
2021/05/16 17:52:13;;;;;;;2.92;2.03;;;;;;;9.08;82.82;98930.09;8708640;32;20318;-72
2021/05/16 17:57:16;;;;;;;4.22;2.17;;;;;;;8.61;82.42;98933.69;8706788;32;20431;-72
2021/05/16 18:02:19;;;;;;;2.20;2.00;;;;;;;8.54;83.15;98935.28;8706002;32;20436;-72
2021/05/16 18:07:23;;;;;;;5.40;2.33;;;;;;;8.67;82.77;98949.19;8716075;32;21080;-73
2021/05/16 18:12:26;;;;;;;3.72;2.40;;;;;;;8.65;82.99;98951.16;8710590;32;20153;-72
2021/05/16 18:17:28;;;;;;;4.53;3.00;;;;;;;9.13;83.88;98951.91;8714613;32;20251;-72
2021/05/16 18:22:32;;;;;;;7.18;3.17;;;;;;;9.35;84.00;98950.66;8716516;32;20402;-72
2021/05/16 18:27:36;;;;;;;5.07;2.63;;;;;;;9.57;83.63;98949.38;8714213;32;20414;-72
2021/05/16 18:32:40;;;;;;;4.15;2.70;;;;;;;9.46;83.08;98945.94;8714453;32;21057;-72
2021/05/16 18:37:44;;;;;;;4.55;2.80;;;;;;;9.58;83.42;98943.03;8715290;32;20437;-72
2021/05/16 18:42:49;;;;;;;2.80;2.45;;;;;;;9.54;83.97;98944.31;8714770;32;20462;-71
2021/05/16 18:47:52;;;;;;;4.07;2.35;;;;;;;9.72;83.93;98939.81;8718800;32;20396;-71
2021/05/16 18:52:56;;;;;;;4.00;2.55;;;;;;;9.79;84.09;98932.84;8720136;32;20149;-71
2021/05/16 18:58:04;;;;;;;4.57;2.70;;;;;;;9.86;84.02;98923.19;8719977;32;20279;-72
2021/05/16 19:03:06;;;;;;;2.95;2.20;;;;;;;9.91;83.51;98920.03;8720401;32;20127;-71
2021/05/16 19:08:10;;;;;;;4.82;2.83;;;;;;;9.87;83.85;98932.94;8721671;32;21942;-71
2021/05/16 19:13:14;;;;;;;3.33;2.70;;;;;;;9.84;83.84;98919.78;8723143;32;21938;-71
2021/05/16 19:18:17;;;;;;;11.27;2.80;;;;;;;9.83;83.57;98912.75;8722598;32;20459;-70
2021/05/16 19:23:20;;;;;;;2.58;2.25;;;;;;;9.78;83.84;98923.09;8714302;32;20181;-71
2021/05/16 19:28:25;;;;;;;2.78;2.50;;;;;;;9.67;83.57;98929.53;8712040;32;20420;-70
2021/05/16 19:33:28;;;;;;;4.65;2.47;;;;;;;9.73;83.82;98930.75;8716680;32;20319;-70
2021/05/16 19:38:31;;;;;;;2.72;2.50;;;;;;;9.68;83.97;98925.00;8715089;32;20647;-70
2021/05/16 19:43:34;;;;;;;3.97;2.47;;;;;;;9.58;83.38;98924.25;8715834;32;20414;-70
2021/05/16 19:48:37;;;;;;;4.05;3.08;;;;;;;9.51;83.71;98926.69;8713761;32;20177;-71
2021/05/16 19:53:40;;;;;;;4.03;3.25;;;;;;;9.48;83.26;98929.69;8692852;32;20200;-71
2021/05/16 19:58:43;;;;;;;3.30;2.83;;;;;;;9.42;83.64;98933.81;8718871;32;20404;-71
2021/05/16 20:03:45;;;;;;;3.95;2.80;;;;;;;9.45;83.46;98930.00;8723580;32;21547;-71
2021/05/16 20:08:49;;;;;;;3.92;3.28;;;;;;;9.48;83.43;98927.00;8737403;32;20158;-71
2021/05/16 20:14:09;;;;;;;4.85;3.30;;;;;;;9.50;83.79;98923.19;8723629;32;20395;-71
2021/05/16 20:19:12;;;;;;;4.82;3.72;;;;;;;9.50;84.41;98930.38;8721617;32;20442;-71
2021/05/16 20:24:16;;;;;;;4.03;3.63;;;;;;;9.44;84.22;98931.84;8722546;32;20436;-71
2021/05/16 20:29:19;;;;;;;5.50;4.03;;;;;;;9.31;83.67;98942.06;8722462;32;20141;-71
2021/05/16 20:34:23;;;;;;;5.45;4.50;;;;;;;9.41;83.95;98939.34;8710342;32;20428;-71
2021/05/16 20:39:26;;;;;;;4.97;4.47;;;;;;;9.56;83.80;98935.13;8721170;32;20190;-71
2021/05/16 20:44:29;;;;;;;7.45;4.75;;;;;;;9.57;83.71;98931.47;8673501;32;20403;-71
2021/05/16 20:49:33;;;;;;;5.43;4.15;;;;;;;9.55;83.75;98932.63;8656525;33;20437;-71
2021/05/16 20:54:36;;;;;;;4.50;4.05;;;;;;;9.48;83.59;98933.19;8657980;33;20182;-71
2021/05/16 20:59:39;;;;;;;5.97;4.40;;;;;;;9.35;84.14;98939.94;8656402;33;21845;-71
2021/05/16 21:04:41;;;;;;;7.57;4.45;;;;;;;9.25;83.63;98950.72;8656717;33;20190;-71
2021/05/16 21:09:45;;;;;;;5.30;3.92;;;;;;;9.42;83.93;98946.38;8703985;32;20931;-71
2021/05/16 21:14:48;;;;;;;5.72;4.03;;;;;;;9.28;84.28;98956.63;8719394;32;21040;-71
2021/05/16 21:19:50;;;;;;;4.82;3.40;;;;;;;9.34;83.87;98944.44;8714567;32;20268;-71
2021/05/16 21:24:54;;;;;;;4.55;3.70;;;;;;;9.43;83.67;98950.72;8716528;32;20474;-71
2021/05/16 21:29:56;;;;;;;3.83;3.47;;;;;;;9.37;83.80;98954.88;8713875;32;20628;-72
2021/05/16 21:35:21;;;;;;;4.97;3.33;;;;;;;9.46;83.65;98955.78;8675061;32;20468;-71
2021/05/16 21:40:27;;;;;;;5.60;3.53;;;;;;;9.46;83.76;98950.44;8714986;32;20259;-71
2021/05/16 21:45:31;;;;;;;9.30;3.80;;;;;;;9.47;83.53;98949.44;8719337;32;20141;-71
2021/05/16 21:50:35;;;;;;;5.00;3.80;;;;;;;9.46;83.79;98947.75;8718947;32;20413;-72
2021/05/16 21:55:38;;;;;;;6.53;3.80;;;;;;;9.53;83.69;98945.31;8718820;32;21496;-72
2021/05/16 22:00:41;;;;;;;4.35;3.90;;;;;;;9.57;83.43;98941.31;8725431;32;20839;-71
2021/05/16 22:05:44;;;;;;;6.97;4.30;;;;;;;9.50;83.78;98936.56;8719380;32;20425;-71
2021/05/16 22:10:47;;;;;;;7.13;6.05;;;;;;;9.53;83.62;98939.97;8719129;32;20560;-72
2021/05/16 22:15:52;;;;;;;3.67;3.35;;;;;;;9.46;83.94;98935.22;8719024;32;20857;-71
2021/05/16 22:20:54;;;;;;;6.47;4.20;;;;;;;9.34;83.24;98939.09;8735183;32;20138;-72
2021/05/16 22:25:58;;;;;;;6.07;3.80;;;;;;;9.09;83.43;98932.63;8743557;32;20551;-72
2021/05/16 22:31:00;;;;;;;7.50;4.38;;;;;;;8.80;83.40;98936.31;8740179;32;20154;-72
2021/05/16 22:36:05;;;;;;;6.10;3.58;;;;;;;8.84;83.08;98939.53;8740146;32;20489;-72
2021/05/16 22:41:08;;;;;;;5.75;4.65;;;;;;;8.71;83.02;98941.69;8739052;32;20180;-72
2021/05/16 22:46:11;;;;;;;8.85;5.50;;;;;;;8.68;83.33;98942.00;8739676;32;20609;-72
2021/05/16 22:51:13;;;;;;;6.70;5.13;;;;;;;8.68;82.86;98944.69;8741697;32;20319;-71
2021/05/16 22:56:17;;;;;;;9.52;5.95;;;;;;;8.50;83.00;98942.78;8743534;32;20213;-71
2021/05/16 23:01:20;;;;;;;11.27;5.93;;;;;;;8.54;82.65;98943.31;8743583;32;20308;-72
2021/05/16 23:06:23;;;;;;;11.15;7.10;;;;;;;8.57;82.69;98943.03;8740411;32;20498;-72
2021/05/16 23:11:28;;;;;;;9.40;6.57;;;;;;;8.56;82.50;98944.03;8739070;32;20196;-71
2021/05/16 23:16:31;;;;;;;10.65;7.68;;;;;;;8.40;82.66;98950.78;8737100;32;20142;-71
2021/05/16 23:21:34;;;;;;;13.40;8.63;;;;;;;8.34;82.64;98959.41;8736406;32;20236;-71
2021/05/16 23:26:38;;;;;;;15.98;9.27;;;;;;;8.26;83.21;98959.28;8735159;32;20142;-71
2021/05/16 23:31:41;;;;;;;16.15;9.65;;;;;;;8.33;82.61;98957.69;8735594;32;20415;-71
2021/05/16 23:36:45;;;;;;;14.45;9.95;;;;;;;8.25;82.44;98972.78;8679002;33;22436;-71
2021/05/16 23:41:50;;;;;;;17.80;10.30;;;;;;;8.21;82.90;98971.41;8680242;33;20150;-71
2021/05/16 23:46:54;;;;;;;18.17;11.30;;;;;;;8.26;82.64;98964.63;8679950;33;21333;-71
2021/05/16 23:51:57;;;;;;;19.35;11.73;;;;;;;8.25;82.52;98978.97;8673926;33;20237;-71